Time;durP1;ratioP1;P1;durP2;ratioP2;P2;SDS_P1;SDS_P2;PMS_P1;PMS_P2;Temp;Humidity;BMP_temperature;BMP_pressure;BME280_temperature;BME280_humidity;BME280_pressure;Samples;Min_cycle;Max_cycle;Signal;HPM_P1;HPM_P2
2022/03/31 00:00:31;;;;;;;3.53;1.48;;;;;;;;;;5055289;28;20406;-29
2022/03/31 00:02:58;;;;;;;2.72;1.85;;;;;;;;;;5054507;28;20083;-31
2022/03/31 00:05:25;;;;;;;2.85;1.80;;;;;;;;;;5036569;28;20051;-30
2022/03/31 00:07:53;;;;;;;4.55;1.90;;;;;;;;;;5054367;28;20041;-30
2022/03/31 00:10:27;;;;;;;2.35;1.67;;;;;;;;;;5054204;28;20033;-34
2022/03/31 00:12:53;;;;;;;;;;;;;;;;;;5054192;28;20489;-32
2022/03/31 00:15:19;;;;;;;2.60;1.50;;;;;;;;;;5053869;28;19920;-29
2022/03/31 00:17:46;;;;;;;2.38;1.63;;;;;;;;;;5053858;28;20124;-28
2022/03/31 00:32:32;;;;;;;2.25;1.60;;;;;;;;;;5053089;28;20131;-30
2022/03/31 00:34:58;;;;;;;4.00;1.92;;;;;;;;;;5053769;28;20043;-30
2022/03/31 00:37:40;;;;;;;5.40;1.60;;;;;;;;;;5053605;28;20502;-30
2022/03/31 00:40:09;;;;;;;1.90;1.50;;;;;;;;;;5053829;28;20415;-30
2022/03/31 00:42:42;;;;;;;4.82;1.52;;;;;;;;;;5054122;28;20502;-30
2022/03/31 00:45:12;;;;;;;5.03;1.80;;;;;;;;;;5035657;28;20048;-30
2022/03/31 00:47:38;;;;;;;5.00;1.60;;;;;;;;;;5035783;28;20072;-29
2022/03/31 00:50:05;;;;;;;3.53;1.73;;;;;;;;;;5053350;28;20087;-29
2022/03/31 00:52:31;;;;;;;3.30;1.67;;;;;;;;;;5052827;28;20041;-29
2022/03/31 00:54:57;;;;;;;4.13;1.80;;;;;;;;;;5053376;28;20037;-30
2022/03/31 00:57:23;;;;;;;2.40;1.65;;;;;;;;;;5053579;28;20041;-29
2022/03/31 00:59:50;;;;;;;3.15;1.55;;;;;;;;;;5053206;28;20656;-29
2022/03/31 01:02:16;;;;;;;5.03;1.45;;;;;;;;;;5052942;28;20111;-29
2022/03/31 01:04:42;;;;;;;4.97;1.77;;;;;;;;;;5053369;28;20533;-30
2022/03/31 01:07:08;;;;;;;3.58;1.58;;;;;;;;;;5053023;28;20399;-32
2022/03/31 01:09:35;;;;;;;2.95;1.65;;;;;;;;;;5052758;28;20041;-28
2022/03/31 01:12:01;;;;;;;3.15;1.88;;;;;;;;;;5052704;28;20041;-32
2022/03/31 01:14:29;;;;;;;2.95;1.70;;;;;;;;;;5053124;28;20047;-31
2022/03/31 01:16:56;;;;;;;4.63;1.73;;;;;;;;;;5052857;28;20096;-30
2022/03/31 01:19:22;;;;;;;4.47;1.83;;;;;;;;;;5052863;28;20076;-31
2022/03/31 01:21:49;;;;;;;2.60;1.50;;;;;;;;;;5034485;28;20130;-29
2022/03/31 01:24:15;;;;;;;2.85;1.88;;;;;;;;;;5052605;28;20033;-26
2022/03/31 01:26:42;;;;;;;3.95;1.85;;;;;;;;;;5052960;28;20048;-27
2022/03/31 01:29:09;;;;;;;2.88;1.90;;;;;;;;;;5052925;28;20441;-26
2022/03/31 01:31:37;;;;;;;5.10;2.70;;;;;;;;;;5052990;28;20082;-26
2022/03/31 01:34:04;;;;;;;3.83;2.75;;;;;;;;;;5052643;28;20041;-26
2022/03/31 01:36:31;;;;;;;4.05;2.95;;;;;;;;;;5052504;28;20041;-26
2022/03/31 01:38:57;;;;;;;5.57;3.40;;;;;;;;;;5052515;28;20048;-27
2022/03/31 01:41:24;;;;;;;4.10;2.95;;;;;;;;;;5052341;28;20045;-26
2022/03/31 01:43:51;;;;;;;5.47;3.42;;;;;;;;;;5052414;28;20093;-25
2022/03/31 01:46:17;;;;;;;5.53;3.63;;;;;;;;;;5052258;28;20098;-27
2022/03/31 01:48:44;;;;;;;6.32;3.28;;;;;;;;;;5052579;28;20120;-27
2022/03/31 01:51:10;;;;;;;5.18;3.30;;;;;;;;;;5052218;28;20056;-27
2022/03/31 01:53:38;;;;;;;7.72;4.00;;;;;;;;;;5034334;28;20049;-25
2022/03/31 01:56:06;;;;;;;4.85;3.42;;;;;;;;;;5052600;28;20075;-25
2022/03/31 01:58:33;;;;;;;5.13;3.00;;;;;;;;;;5052458;28;20041;-27
2022/03/31 02:00:59;;;;;;;4.22;3.42;;;;;;;;;;5051943;28;20127;-25
2022/03/31 02:03:25;;;;;;;4.30;3.03;;;;;;;;;;5034019;28;20520;-26
2022/03/31 02:05:52;;;;;;;7.03;3.70;;;;;;;;;;5052320;28;20126;-26
2022/03/31 02:08:18;;;;;;;6.40;4.35;;;;;;;;;;5052514;28;20124;-26
2022/03/31 02:10:45;;;;;;;5.35;4.07;;;;;;;;;;5033996;28;20099;-26
2022/03/31 02:13:12;;;;;;;5.03;3.75;;;;;;;;;;5051858;28;20044;-27
2022/03/31 02:15:38;;;;;;;6.80;3.63;;;;;;;;;;5052306;28;20441;-27
2022/03/31 02:18:04;;;;;;;7.00;3.90;;;;;;;;;;5051753;28;20045;-26
2022/03/31 02:20:32;;;;;;;5.25;3.75;;;;;;;;;;5033888;28;20098;-27
2022/03/31 02:23:02;;;;;;;5.85;3.67;;;;;;;;;;5052262;28;20068;-26
2022/03/31 02:25:29;;;;;;;5.07;3.40;;;;;;;;;;5052016;28;20065;-26
2022/03/31 02:27:55;;;;;;;5.25;3.78;;;;;;;;;;5051985;28;20037;-26
2022/03/31 02:30:23;;;;;;;5.20;3.60;;;;;;;;;;5033810;28;20076;-27
2022/03/31 02:32:49;;;;;;;5.63;3.35;;;;;;;;;;5033841;28;20128;-27
2022/03/31 02:35:16;;;;;;;6.38;3.78;;;;;;;;;;5017826;28;20040;-29
2022/03/31 02:37:42;;;;;;;5.63;3.70;;;;;;;;;;5051863;28;20044;-27
2022/03/31 02:40:08;;;;;;;4.30;3.33;;;;;;;;;;5051839;28;20041;-25
2022/03/31 02:42:35;;;;;;;5.60;3.42;;;;;;;;;;5051879;28;20624;-26
2022/03/31 02:45:02;;;;;;;4.78;3.72;;;;;;;;;;5051617;28;20036;-27
2022/03/31 02:47:29;;;;;;;6.70;4.00;;;;;;;;;;5051411;28;20172;-27
2022/03/31 02:49:55;;;;;;;6.35;3.78;;;;;;;;;;5033440;28;20037;-26
2022/03/31 02:52:21;;;;;;;6.43;4.38;;;;;;;;;;5051563;28;20120;-27
2022/03/31 02:57:32;;;;;;;5.63;4.30;;;;;;;;;;5051658;28;20052;-26
2022/03/31 02:59:58;;;;;;;6.05;4.68;;;;;;;;;;5051632;28;20045;-26
2022/03/31 03:02:24;;;;;;;6.43;4.50;;;;;;;;;;5033463;28;20063;-26
2022/03/31 03:04:50;;;;;;;5.70;4.60;;;;;;;;;;5051541;28;20461;-27
2022/03/31 03:07:17;;;;;;;5.75;4.95;;;;;;;;;;5051652;28;20482;-25
2022/03/31 03:09:43;;;;;;;6.05;5.18;;;;;;;;;;5033351;28;20041;-26
2022/03/31 03:12:10;;;;;;;5.25;4.70;;;;;;;;;;5051395;28;20120;-27
2022/03/31 03:14:36;;;;;;;7.00;4.72;;;;;;;;;;5053242;28;20037;-25
2022/03/31 03:17:02;;;;;;;6.07;4.85;;;;;;;;;;5055306;28;20044;-26
2022/03/31 03:19:28;;;;;;;6.22;4.88;;;;;;;;;;5054916;28;20045;-26
2022/03/31 03:21:54;;;;;;;5.68;4.65;;;;;;;;;;5020765;28;20269;-27
2022/03/31 03:24:22;;;;;;;7.57;5.22;;;;;;;;;;5055459;28;20044;-28
2022/03/31 03:26:48;;;;;;;7.32;5.53;;;;;;;;;;5054786;28;20048;-26
2022/03/31 03:29:15;;;;;;;6.78;5.70;;;;;;;;;;5036915;28;20083;-25
2022/03/31 03:31:42;;;;;;;7.45;5.95;;;;;;;;;;5037122;28;20056;-25
2022/03/31 03:34:09;;;;;;;7.63;6.82;;;;;;;;;;5055101;28;20661;-26
2022/03/31 03:36:35;;;;;;;9.13;6.80;;;;;;;;;;5055103;28;20048;-27
2022/03/31 03:39:01;;;;;;;9.27;6.75;;;;;;;;;;5054791;28;20045;-27
2022/03/31 03:41:27;;;;;;;7.32;6.47;;;;;;;;;;5054821;28;20461;-27
2022/03/31 03:43:53;;;;;;;8.48;7.18;;;;;;;;;;5054777;28;20041;-26
2022/03/31 03:46:19;;;;;;;8.57;7.20;;;;;;;;;;5054955;28;20406;-27
2022/03/31 03:48:46;;;;;;;9.50;7.60;;;;;;;;;;5054454;28;20432;-26
2022/03/31 03:51:12;;;;;;;9.50;8.48;;;;;;;;;;5054442;28;20076;-28
2022/03/31 03:53:38;;;;;;;9.18;7.80;;;;;;;;;;5054441;28;20051;-26
2022/03/31 03:56:04;;;;;;;8.80;7.82;;;;;;;;;;5054702;28;20566;-27
2022/03/31 03:58:30;;;;;;;10.07;8.15;;;;;;;;;;5054550;28;20487;-26
2022/03/31 04:00:56;;;;;;;9.20;8.15;;;;;;;;;;5054439;28;20037;-26
2022/03/31 04:03:22;;;;;;;8.05;7.15;;;;;;;;;;5054410;28;20380;-26
2022/03/31 04:05:50;;;;;;;8.90;7.95;;;;;;;;;;5053869;28;20033;-27
2022/03/31 04:08:16;;;;;;;9.20;8.23;;;;;;;;;;5054289;28;20141;-26
2022/03/31 04:10:42;;;;;;;9.00;8.07;;;;;;;;;;5054260;28;20434;-27
2022/03/31 04:13:08;;;;;;;9.43;8.45;;;;;;;;;;5054474;28;20480;-27
2022/03/31 04:15:34;;;;;;;8.70;7.80;;;;;;;;;;5054086;28;20041;-26
2022/03/31 04:18:01;;;;;;;8.75;7.53;;;;;;;;;;5054272;28;20130;-27
2022/03/31 04:20:27;;;;;;;10.10;8.73;;;;;;;;;;5053939;28;20040;-27
2022/03/31 04:22:53;;;;;;;8.88;7.97;;;;;;;;;;5053912;28;20124;-26
2022/03/31 04:25:19;;;;;;;9.77;8.77;;;;;;;;;;5035519;28;20488;-26
2022/03/31 04:27:45;;;;;;;8.82;7.88;;;;;;;;;;5054325;28;20045;-25
2022/03/31 04:30:12;;;;;;;9.98;8.98;;;;;;;;;;5053865;28;20069;-27
2022/03/31 04:32:38;;;;;;;10.13;8.90;;;;;;;;;;5053867;28;20532;-27
2022/03/31 04:35:05;;;;;;;10.30;9.20;;;;;;;;;;5059201;28;20033;-26
2022/03/31 04:37:33;;;;;;;10.65;9.55;;;;;;;;;;5064853;28;20117;-24
2022/03/31 04:39:59;;;;;;;11.35;9.90;;;;;;;;;;5062015;28;20036;-25
2022/03/31 04:42:25;;;;;;;10.65;9.57;;;;;;;;;;5073453;28;20494;-26
2022/03/31 04:44:51;;;;;;;10.18;9.13;;;;;;;;;;5067938;28;20047;-27
2022/03/31 04:47:17;;;;;;;11.05;9.48;;;;;;;;;;5038634;28;20037;-26
2022/03/31 04:49:43;;;;;;;12.27;10.05;;;;;;;;;;5052217;28;20119;-26
2022/03/31 04:52:11;;;;;;;11.27;9.90;;;;;;;;;;5052992;28;20041;-26
2022/03/31 04:54:43;;;;;;;11.52;10.13;;;;;;;;;;5053498;28;20041;-27
2022/03/31 04:57:10;;;;;;;9.90;8.90;;;;;;;;;;5053295;28;20053;-26
2022/03/31 04:59:36;;;;;;;10.80;9.70;;;;;;;;;;5053098;28;20076;-25
2022/03/31 05:02:02;;;;;;;12.27;9.77;;;;;;;;;;5035348;28;20490;-26
2022/03/31 05:04:28;;;;;;;10.98;9.48;;;;;;;;;;5053105;28;20120;-26
2022/03/31 05:06:54;;;;;;;9.90;8.77;;;;;;;;;;5052834;28;20048;-26
2022/03/31 05:09:21;;;;;;;9.95;8.95;;;;;;;;;;5053153;28;20040;-26
2022/03/31 05:11:48;;;;;;;10.38;9.27;;;;;;;;;;5052708;28;20084;-26
2022/03/31 05:14:14;;;;;;;10.52;9.43;;;;;;;;;;5053163;28;20040;-26
2022/03/31 05:16:40;;;;;;;9.88;8.88;;;;;;;;;;5053050;28;20056;-27
2022/03/31 05:19:06;;;;;;;10.82;9.75;;;;;;;;;;5052434;28;20041;-26
2022/03/31 05:21:32;;;;;;;10.48;9.48;;;;;;;;;;5034783;28;20142;-26
2022/03/31 05:23:58;;;;;;;9.45;8.45;;;;;;;;;;5052748;28;20051;-27
2022/03/31 05:26:24;;;;;;;11.23;9.98;;;;;;;;;;5067821;28;20036;-28
2022/03/31 05:28:50;;;;;;;9.40;8.48;;;;;;;;;;5073497;28;20044;-26
2022/03/31 05:31:16;;;;;;;10.95;9.85;;;;;;;;;;5073528;28;20067;-26
2022/03/31 05:33:42;;;;;;;11.43;9.43;;;;;;;;;;5055086;28;20036;-28
2022/03/31 05:36:08;;;;;;;10.10;9.10;;;;;;;;;;5072164;28;20086;-25
2022/03/31 05:38:34;;;;;;;11.07;9.93;;;;;;;;;;5072277;28;20037;-28
2022/03/31 05:41:01;;;;;;;10.00;9.00;;;;;;;;;;5072606;28;20397;-28
2022/03/31 05:43:27;;;;;;;9.77;8.77;;;;;;;;;;5072948;28;20482;-25
2022/03/31 05:45:54;;;;;;;10.52;9.43;;;;;;;;;;5072518;28;20044;-26
2022/03/31 05:48:20;;;;;;;10.05;9.05;;;;;;;;;;5071548;28;20075;-25
2022/03/31 05:50:46;;;;;;;10.82;9.73;;;;;;;;;;5070159;28;20048;-25
2022/03/31 05:53:13;;;;;;;10.90;9.77;;;;;;;;;;5071220;28;20074;-25
2022/03/31 05:55:40;;;;;;;9.75;8.35;;;;;;;;;;5071444;28;20036;-26
2022/03/31 05:58:07;;;;;;;9.85;8.82;;;;;;;;;;5071826;28;20045;-26
2022/03/31 06:00:33;;;;;;;9.57;8.68;;;;;;;;;;5070566;28;20047;-25
2022/03/31 06:02:59;;;;;;;9.07;8.18;;;;;;;;;;5071369;28;20045;-27
2022/03/31 06:05:25;;;;;;;10.90;9.57;;;;;;;;;;5072053;28;20135;-27
2022/03/31 06:07:52;;;;;;;10.00;8.98;;;;;;;;;;5071405;28;20043;-26
2022/03/31 06:10:19;;;;;;;10.00;8.93;;;;;;;;;;5072258;28;20040;-27
2022/03/31 06:12:45;;;;;;;10.43;9.07;;;;;;;;;;5072067;28;20044;-29
2022/03/31 06:15:11;;;;;;;11.13;9.93;;;;;;;;;;5071867;28;20053;-29
2022/03/31 06:17:40;;;;;;;10.43;9.43;;;;;;;;;;5071589;28;20040;-31
2022/03/31 06:20:07;;;;;;;9.93;8.93;;;;;;;;;;5070980;28;20044;-30
2022/03/31 06:22:33;;;;;;;10.57;9.48;;;;;;;;;;5070815;28;20115;-30
2022/03/31 06:24:59;;;;;;;9.95;8.95;;;;;;;;;;5071138;28;20516;-31
2022/03/31 06:27:25;;;;;;;9.95;8.95;;;;;;;;;;5070672;28;20040;-30
2022/03/31 06:29:52;;;;;;;9.55;8.63;;;;;;;;;;5071056;28;20037;-30
2022/03/31 06:32:19;;;;;;;12.65;11.35;;;;;;;;;;5070368;28;20044;-31
2022/03/31 06:34:45;;;;;;;12.05;10.85;;;;;;;;;;5071308;28;20041;-28
2022/03/31 06:37:13;;;;;;;11.30;10.00;;;;;;;;;;5070674;28;20055;-28
2022/03/31 06:39:39;;;;;;;11.15;10.02;;;;;;;;;;5071001;28;20080;-34
2022/03/31 06:42:06;;;;;;;10.85;9.75;;;;;;;;;;5070999;28;20498;-29
2022/03/31 06:44:32;;;;;;;11.30;10.13;;;;;;;;;;5070699;28;20493;-28
2022/03/31 06:46:59;;;;;;;12.55;11.25;;;;;;;;;;5070686;28;20044;-29
2022/03/31 06:49:25;;;;;;;12.45;11.15;;;;;;;;;;5074279;28;20504;-28
2022/03/31 06:51:51;;;;;;;11.05;9.95;;;;;;;;;;5074657;28;20525;-30
2022/03/31 06:54:21;;;;;;;12.38;11.07;;;;;;;;;;5073698;28;20044;-32
2022/03/31 06:56:48;;;;;;;11.98;10.52;;;;;;;;;;5074890;28;20040;-30
2022/03/31 06:59:15;;;;;;;12.35;10.43;;;;;;;;;;5074094;28;20048;-30
2022/03/31 07:01:41;;;;;;;12.23;11.02;;;;;;;;;;5074450;28;20040;-28
2022/03/31 07:04:07;;;;;;;12.30;11.00;;;;;;;;;;5064926;28;20044;-29
2022/03/31 07:06:34;;;;;;;11.75;10.55;;;;;;;;;;5046205;28;20072;-31
2022/03/31 07:09:00;;;;;;;12.38;10.30;;;;;;;;;;5052581;28;20052;-28
2022/03/31 07:11:26;;;;;;;12.38;10.68;;;;;;;;;;5074527;28;20036;-30
2022/03/31 07:13:53;;;;;;;14.05;11.85;;;;;;;;;;5056747;28;20398;-28
2022/03/31 07:16:19;;;;;;;13.27;11.70;;;;;;;;;;5074288;28;20123;-29
2022/03/31 07:18:45;;;;;;;14.68;13.07;;;;;;;;;;5072499;28;20093;-29
2022/03/31 07:21:11;;;;;;;13.13;11.73;;;;;;;;;;5069212;28;20407;-28
2022/03/31 07:23:37;;;;;;;14.82;13.20;;;;;;;;;;5065698;28;20036;-30
2022/03/31 07:26:06;;;;;;;13.98;12.25;;;;;;;;;;5061496;28;20037;-30
2022/03/31 07:28:32;;;;;;;16.73;13.40;;;;;;;;;;5069392;28;20452;-28
2022/03/31 07:30:58;;;;;;;14.30;12.80;;;;;;;;;;5072124;28;20044;-28
2022/03/31 07:33:25;;;;;;;14.85;12.57;;;;;;;;;;5073915;28;20352;-29
2022/03/31 07:35:51;;;;;;;16.08;14.35;;;;;;;;;;5074013;28;20042;-30
2022/03/31 07:38:17;;;;;;;15.02;13.43;;;;;;;;;;5073710;28;20052;-28
2022/03/31 07:40:45;;;;;;;18.00;15.30;;;;;;;;;;5073899;28;20560;-29
2022/03/31 07:43:11;;;;;;;16.60;14.45;;;;;;;;;;5073048;28;20045;-29
2022/03/31 07:45:38;;;;;;;16.27;13.60;;;;;;;;;;5073883;28;20055;-29
2022/03/31 07:48:04;;;;;;;15.77;13.38;;;;;;;;;;5055862;28;20425;-29
2022/03/31 07:50:31;;;;;;;18.00;13.85;;;;;;;;;;5073409;28;20037;-30
2022/03/31 07:52:57;;;;;;;16.77;14.23;;;;;;;;;;5073009;28;20040;-31
2022/03/31 07:55:24;;;;;;;17.65;15.13;;;;;;;;;;5073446;28;20040;-28
2022/03/31 07:57:50;;;;;;;16.27;13.40;;;;;;;;;;5073102;28;20539;-31
2022/03/31 08:00:17;;;;;;;17.75;14.15;;;;;;;;;;5072648;28;20048;-29
2022/03/31 08:02:45;;;;;;;16.73;13.93;;;;;;;;;;5073030;28;20522;-29
2022/03/31 08:05:11;;;;;;;18.23;15.20;;;;;;;;;;5073372;28;20044;-29
2022/03/31 08:07:38;;;;;;;17.73;14.63;;;;;;;;;;5073591;28;20072;-32
2022/03/31 08:10:05;;;;;;;19.52;16.98;;;;;;;;;;5073080;28;20123;-31
2022/03/31 08:12:33;;;;;;;18.20;15.63;;;;;;;;;;5072013;28;20032;-28
2022/03/31 08:15:00;;;;;;;18.38;15.63;;;;;;;;;;5073228;28;20068;-28
2022/03/31 08:17:27;;;;;;;17.80;14.45;;;;;;;;;;5073641;28;20040;-29
2022/03/31 08:19:53;;;;;;;18.15;15.90;;;;;;;;;;5054985;28;20090;-29
2022/03/31 08:22:20;;;;;;;17.20;14.82;;;;;;;;;;5072644;28;20047;-30
2022/03/31 08:24:46;;;;;;;18.85;16.27;;;;;;;;;;5072539;28;20059;-29
2022/03/31 08:27:12;;;;;;;17.85;15.95;;;;;;;;;;5065637;28;20099;-29
2022/03/31 08:29:39;;;;;;;18.02;15.80;;;;;;;;;;5053412;28;20045;-31
2022/03/31 08:32:06;;;;;;;20.77;16.38;;;;;;;;;;5052812;28;20379;-27
2022/03/31 08:34:33;;;;;;;18.25;16.35;;;;;;;;;;5035082;28;20044;-28
2022/03/31 08:36:59;;;;;;;18.30;15.18;;;;;;;;;;5053218;28;20040;-28
2022/03/31 08:39:25;;;;;;;17.98;15.65;;;;;;;;;;5052901;28;20080;-28
2022/03/31 08:41:51;;;;;;;20.85;16.17;;;;;;;;;;5052721;28;20044;-28
2022/03/31 08:44:20;;;;;;;19.50;16.10;;;;;;;;;;5053007;28;20041;-30
2022/03/31 08:46:47;;;;;;;18.58;15.98;;;;;;;;;;5052997;28;20036;-29
2022/03/31 08:49:13;;;;;;;22.48;17.65;;;;;;;;;;5052419;28;20460;-27
2022/03/31 08:51:42;;;;;;;19.98;16.13;;;;;;;;;;5053048;28;20064;-29
2022/03/31 08:54:09;;;;;;;18.50;16.00;;;;;;;;;;5060965;28;20032;-33
2022/03/31 08:56:35;;;;;;;19.85;16.52;;;;;;;;;;5062221;28;20071;-29
2022/03/31 08:59:01;;;;;;;23.00;17.63;;;;;;;;;;5066909;28;21401;-29
2022/03/31 09:01:30;;;;;;;21.10;16.80;;;;;;;;;;5063782;28;20041;-28
2022/03/31 09:03:56;;;;;;;22.38;17.48;;;;;;;;;;5062601;28;20036;-28
2022/03/31 09:06:23;;;;;;;18.13;15.38;;;;;;;;;;5059980;28;20040;-30
2022/03/31 09:09:00;;;;;;;18.10;14.63;;;;;;;;;;5072446;28;20036;-31
2022/03/31 09:11:33;;;;;;;17.08;13.80;;;;;;;;;;5072177;28;20036;-30
2022/03/31 09:14:00;;;;;;;15.07;13.48;;;;;;;;;;5072459;28;20037;-33
2022/03/31 09:16:37;;;;;;;13.38;11.80;;;;;;;;;;5072375;28;20115;-29
2022/03/31 09:19:04;;;;;;;13.18;11.32;;;;;;;;;;5038208;28;20040;-28
2022/03/31 09:21:35;;;;;;;11.70;10.55;;;;;;;;;;5073007;28;20047;-31
2022/03/31 09:24:02;;;;;;;9.90;8.90;;;;;;;;;;5072519;28;20437;-32
2022/03/31 09:26:32;;;;;;;9.43;8.30;;;;;;;;;;5072043;28;20076;-32
2022/03/31 09:29:11;;;;;;;10.70;9.45;;;;;;;;;;5072164;28;20047;-30
2022/03/31 09:31:37;;;;;;;10.25;9.15;;;;;;;;;;5071480;28;20048;-29
2022/03/31 09:34:03;;;;;;;9.27;8.02;;;;;;;;;;5071822;28;20036;-29
2022/03/31 09:36:30;;;;;;;7.40;6.70;;;;;;;;;;5070011;28;20045;-30
2022/03/31 09:39:00;;;;;;;8.48;7.35;;;;;;;;;;5071732;28;20074;-29
2022/03/31 09:41:27;;;;;;;7.85;7.07;;;;;;;;;;5053775;28;20044;-29
2022/03/31 09:43:55;;;;;;;7.38;6.68;;;;;;;;;;5047248;28;20051;-33
2022/03/31 09:46:21;;;;;;;6.35;5.75;;;;;;;;;;5071660;28;20091;-34
2022/03/31 09:48:48;;;;;;;8.35;6.88;;;;;;;;;;5053637;28;20093;-32
2022/03/31 09:51:14;;;;;;;6.18;5.45;;;;;;;;;;5072241;28;20033;-30
2022/03/31 09:53:41;;;;;;;6.13;5.50;;;;;;;;;;5072510;28;20044;-31
2022/03/31 09:56:07;;;;;;;5.80;5.13;;;;;;;;;;5071813;28;20048;-31
2022/03/31 09:58:36;;;;;;;7.75;5.05;;;;;;;;;;5053122;28;20039;-30
2022/03/31 10:01:03;;;;;;;5.32;4.82;;;;;;;;;;5053125;28;20086;-31
2022/03/31 10:03:30;;;;;;;5.55;5.05;;;;;;;;;;5070678;28;20036;-29
2022/03/31 10:05:56;;;;;;;5.75;5.22;;;;;;;;;;5071343;28;20040;-29
2022/03/31 10:08:22;;;;;;;5.22;4.72;;;;;;;;;;5071117;28;20066;-31
2022/03/31 10:10:49;;;;;;;6.55;4.95;;;;;;;;;;5071526;28;20075;-31
2022/03/31 10:13:19;;;;;;;5.35;4.85;;;;;;;;;;5070859;28;20178;-30
2022/03/31 10:15:46;;;;;;;5.60;5.07;;;;;;;;;;5064774;28;20041;-30
2022/03/31 10:18:15;;;;;;;5.18;4.68;;;;;;;;;;5047195;28;20444;-29
2022/03/31 10:20:56;;;;;;;5.25;4.75;;;;;;;;;;5063966;28;20033;-31
2022/03/31 10:26:08;;;;;;;4.97;4.47;;;;;;;;;;5068880;28;20040;-30
2022/03/31 10:28:34;;;;;;;4.93;4.43;;;;;;;;;;5071095;28;20083;-30
2022/03/31 10:31:05;;;;;;;4.82;4.43;;;;;;;;;;5071186;28;20472;-30
2022/03/31 10:33:38;;;;;;;5.50;5.00;;;;;;;;;;5071091;28;20528;-30
2022/03/31 10:36:09;;;;;;;5.07;4.57;;;;;;;;;;5070771;28;20036;-31
2022/03/31 10:38:36;;;;;;;4.82;4.43;;;;;;;;;;5071073;28;20494;-31
2022/03/31 10:41:13;;;;;;;4.95;4.45;;;;;;;;;;5070380;28;20047;-30
2022/03/31 10:43:46;;;;;;;4.70;4.30;;;;;;;;;;5067226;28;20032;-29
2022/03/31 10:46:14;;;;;;;4.50;4.10;;;;;;;;;;5070087;28;20486;-30
2022/03/31 10:48:48;;;;;;;4.55;3.90;;;;;;;;;;5070812;28;20119;-30
2022/03/31 10:51:14;;;;;;;4.38;3.90;;;;;;;;;;5070443;28;20037;-31
2022/03/31 10:53:42;;;;;;;3.80;3.50;;;;;;;;;;5071393;28;20041;-30
2022/03/31 10:56:25;;;;;;;4.07;3.55;;;;;;;;;;5071034;28;20051;-31
2022/03/31 10:58:52;;;;;;;4.00;3.60;;;;;;;;;;5070696;28;20555;-31
2022/03/31 11:01:19;;;;;;;4.25;3.85;;;;;;;;;;5070441;28;20041;-35
2022/03/31 11:03:47;;;;;;;4.40;4.00;;;;;;;;;;5070786;28;20154;-31
2022/03/31 11:06:13;;;;;;;4.18;3.78;;;;;;;;;;5052939;28;20036;-29
2022/03/31 11:08:43;;;;;;;5.13;4.63;;;;;;;;;;5070681;28;20044;-30
2022/03/31 11:11:18;;;;;;;4.47;4.07;;;;;;;;;;5070385;28;20170;-32
2022/03/31 11:13:45;;;;;;;3.80;3.50;;;;;;;;;;5070516;28;20435;-30
2022/03/31 11:16:14;;;;;;;4.20;3.80;;;;;;;;;;5070648;28;20036;-30
2022/03/31 11:18:40;;;;;;;4.13;3.72;;;;;;;;;;5070732;28;20146;-30
2022/03/31 11:21:06;;;;;;;5.82;5.30;;;;;;;;;;5070321;28;20045;-30
2022/03/31 11:23:33;;;;;;;4.80;4.40;;;;;;;;;;5052315;28;20047;-31
2022/03/31 11:25:59;;;;;;;8.25;6.32;;;;;;;;;;5070515;28;20054;-30
2022/03/31 11:28:31;;;;;;;4.60;4.20;;;;;;;;;;5070324;28;20405;-29
2022/03/31 11:30:59;;;;;;;5.45;4.95;;;;;;;;;;5070572;28;20062;-30
2022/03/31 11:33:34;;;;;;;5.82;5.32;;;;;;;;;;5070677;28;20120;-30
2022/03/31 11:36:00;;;;;;;4.85;4.45;;;;;;;;;;5073179;28;20435;-30
2022/03/31 11:38:26;;;;;;;5.82;5.22;;;;;;;;;;5074337;28;20037;-30
2022/03/31 11:40:52;;;;;;;5.72;5.20;;;;;;;;;;5074107;28;20076;-29
2022/03/31 11:43:19;;;;;;;5.72;5.22;;;;;;;;;;5074096;28;20048;-30
2022/03/31 11:45:50;;;;;;;6.68;5.85;;;;;;;;;;5073953;28;20123;-30
2022/03/31 11:48:18;;;;;;;6.22;5.63;;;;;;;;;;5074256;28;20048;-30
2022/03/31 11:50:50;;;;;;;6.97;6.28;;;;;;;;;;5074083;28;20498;-32
2022/03/31 11:53:21;;;;;;;6.85;6.15;;;;;;;;;;5073814;28;20040;-31
2022/03/31 11:55:57;;;;;;;7.57;6.75;;;;;;;;;;5074400;28;20040;-32
2022/03/31 11:58:24;;;;;;;8.00;7.20;;;;;;;;;;5056132;28;20051;-32
2022/03/31 12:00:51;;;;;;;8.50;7.68;;;;;;;;;;5074297;28;20071;-27
2022/03/31 12:03:20;;;;;;;8.73;7.57;;;;;;;;;;5074748;28;20048;-26
2022/03/31 12:06:00;;;;;;;8.43;7.63;;;;;;;;;;5074654;28;20045;-26
2022/03/31 12:08:27;;;;;;;8.75;7.85;;;;;;;;;;5074468;28;20040;-26
2022/03/31 12:10:54;;;;;;;9.35;8.38;;;;;;;;;;5055808;28;20040;-26
2022/03/31 12:13:21;;;;;;;10.65;9.32;;;;;;;;;;5073735;28;20555;-25
2022/03/31 12:15:47;;;;;;;11.07;9.30;;;;;;;;;;5073724;28;20040;-25
2022/03/31 12:18:16;;;;;;;10.65;9.18;;;;;;;;;;5074288;28;20040;-27
2022/03/31 12:20:43;;;;;;;10.95;9.68;;;;;;;;;;5056408;28;20049;-29
2022/03/31 12:23:18;;;;;;;10.98;9.88;;;;;;;;;;5073474;28;20040;-25
2022/03/31 12:25:44;;;;;;;12.40;10.80;;;;;;;;;;5074212;28;20036;-26
2022/03/31 12:28:11;;;;;;;13.00;10.68;;;;;;;;;;5074141;28;20041;-26
2022/03/31 12:30:47;;;;;;;15.27;11.82;;;;;;;;;;5074269;28;20351;-25
2022/03/31 12:33:17;;;;;;;13.30;11.82;;;;;;;;;;5074109;28;20471;-27
2022/03/31 12:35:43;;;;;;;13.80;11.80;;;;;;;;;;5074030;28;20040;-25
2022/03/31 12:38:09;;;;;;;14.30;12.70;;;;;;;;;;5056015;28;20127;-27
2022/03/31 12:40:35;;;;;;;14.20;12.25;;;;;;;;;;5074320;28;20051;-25
2022/03/31 12:43:01;;;;;;;18.05;15.27;;;;;;;;;;5074020;28;20040;-25
2022/03/31 12:45:28;;;;;;;18.75;14.10;;;;;;;;;;5055433;28;20131;-26
2022/03/31 12:47:55;;;;;;;18.33;15.30;;;;;;;;;;5073750;28;20037;-26
2022/03/31 12:50:23;;;;;;;18.33;15.25;;;;;;;;;;5055916;28;20044;-25
2022/03/31 12:52:58;;;;;;;22.20;16.83;;;;;;;;;;5073783;28;20429;-26
2022/03/31 12:55:28;;;;;;;24.20;16.92;;;;;;;;;;5055999;28;20037;-25
2022/03/31 12:57:55;;;;;;;22.83;17.17;;;;;;;;;;5073532;28;20550;-25
2022/03/31 13:00:22;;;;;;;23.90;17.88;;;;;;;;;;5055163;28;20045;-26
2022/03/31 13:02:48;;;;;;;25.67;19.10;;;;;;;;;;5072941;28;20052;-26
2022/03/31 13:05:18;;;;;;;24.63;18.85;;;;;;;;;;5072762;28;20087;-26
2022/03/31 13:07:45;;;;;;;22.10;16.92;;;;;;;;;;5073307;28;20128;-27
2022/03/31 13:10:11;;;;;;;26.15;20.83;;;;;;;;;;5073314;28;20072;-27
2022/03/31 13:12:37;;;;;;;28.23;21.73;;;;;;;;;;5073295;28;20076;-26
2022/03/31 13:15:05;;;;;;;29.67;21.52;;;;;;;;;;5073589;28;20047;-25
2022/03/31 13:17:31;;;;;;;35.40;25.52;;;;;;;;;;5072992;28;20045;-29
2022/03/31 13:19:58;;;;;;;34.72;24.30;;;;;;;;;;5072750;28;20072;-31
2022/03/31 13:22:28;;;;;;;32.67;24.15;;;;;;;;;;5072816;28;20047;-29
2022/03/31 13:24:54;;;;;;;33.10;24.90;;;;;;;;;;5073133;28;20492;-31
2022/03/31 13:27:21;;;;;;;31.75;24.65;;;;;;;;;;5073045;28;20101;-28
2022/03/31 13:29:48;;;;;;;32.03;24.80;;;;;;;;;;5072981;28;20486;-29
2022/03/31 13:32:14;;;;;;;33.17;24.95;;;;;;;;;;5072828;28;20041;-29
2022/03/31 13:34:46;;;;;;;32.33;26.02;;;;;;;;;;5073131;28;20040;-28
2022/03/31 13:37:13;;;;;;;33.65;24.48;;;;;;;;;;5054565;28;20383;-29
2022/03/31 13:39:39;;;;;;;30.65;24.65;;;;;;;;;;5071132;28;20048;-29
2022/03/31 13:42:06;;;;;;;32.33;26.55;;;;;;;;;;5071075;28;20333;-29
2022/03/31 13:44:32;;;;;;;32.67;25.67;;;;;;;;;;5071463;28;20044;-31
2022/03/31 13:46:59;;;;;;;36.40;26.08;;;;;;;;;;5071173;28;20510;-29
2022/03/31 13:49:25;;;;;;;36.00;26.88;;;;;;;;;;5071323;28;20390;-31
2022/03/31 13:51:52;;;;;;;31.35;25.00;;;;;;;;;;5052876;28;20047;-29
2022/03/31 13:54:19;;;;;;;30.10;24.15;;;;;;;;;;5071665;28;20037;-30
2022/03/31 13:56:47;;;;;;;30.73;24.30;;;;;;;;;;5071005;28;20561;-29
2022/03/31 14:02:00;;;;;;;29.15;22.88;;;;;;;;;;5070100;28;20045;-28
2022/03/31 14:04:26;;;;;;;25.63;22.80;;;;;;;;;;5070865;28;20036;-28
2022/03/31 14:06:53;;;;;;;25.30;21.20;;;;;;;;;;5070960;28;20083;-29
2022/03/31 14:09:20;;;;;;;25.35;20.98;;;;;;;;;;5070852;28;20094;-28
2022/03/31 14:11:46;;;;;;;29.92;23.25;;;;;;;;;;5070601;28;20518;-29
2022/03/31 14:14:15;;;;;;;25.20;20.30;;;;;;;;;;5053063;28;20098;-28
2022/03/31 14:16:42;;;;;;;24.50;19.75;;;;;;;;;;5070960;28;20044;-29
2022/03/31 14:19:12;;;;;;;24.20;20.83;;;;;;;;;;5070894;28;20465;-29
2022/03/31 14:21:43;;;;;;;25.08;20.05;;;;;;;;;;5052737;28;20101;-29
2022/03/31 14:24:09;;;;;;;25.38;19.77;;;;;;;;;;5071038;28;20040;-28
2022/03/31 14:26:35;;;;;;;23.23;19.17;;;;;;;;;;5071480;28;20157;-31
2022/03/31 14:29:02;;;;;;;22.15;19.38;;;;;;;;;;5070923;28;20041;-30
2022/03/31 14:31:28;;;;;;;22.08;18.42;;;;;;;;;;5070369;28;20486;-29
2022/03/31 14:33:55;;;;;;;22.92;17.90;;;;;;;;;;5052866;28;20044;-29
2022/03/31 14:36:21;;;;;;;20.65;18.20;;;;;;;;;;5070788;28;20494;-29
2022/03/31 14:38:48;;;;;;;21.20;17.88;;;;;;;;;;5070452;28;20393;-29
2022/03/31 14:41:16;;;;;;;19.42;17.42;;;;;;;;;;5070333;28;20044;-32
2022/03/31 14:43:44;;;;;;;20.63;16.67;;;;;;;;;;5070490;28;20036;-30
2022/03/31 14:46:11;;;;;;;21.05;17.20;;;;;;;;;;5070281;28;20071;-29
2022/03/31 14:48:37;;;;;;;19.48;17.45;;;;;;;;;;5070550;28;20509;-30
2022/03/31 14:51:04;;;;;;;21.05;18.42;;;;;;;;;;5070094;28;20397;-31